sensor_id;sensor_type;location;lat;lon;timestamp;P1;durP1;ratioP1;P2;durP2;ratioP2
50249;SDS011;36133;42.522;27.456;2022-07-29T00:02:21;10.85;;;5.32;;
50249;SDS011;36133;42.522;27.456;2022-07-29T00:04:46;5.65;;;4.78;;
50249;SDS011;36133;42.522;27.456;2022-07-29T00:07:12;12.20;;;5.00;;
50249;SDS011;36133;42.522;27.456;2022-07-29T00:09:37;8.55;;;5.38;;
50249;SDS011;36133;42.522;27.456;2022-07-29T00:12:03;7.80;;;4.90;;
50249;SDS011;36133;42.522;27.456;2022-07-29T00:14:29;8.07;;;4.95;;
50249;SDS011;36133;42.522;27.456;2022-07-29T00:16:54;8.30;;;4.90;;
50249;SDS011;36133;42.522;27.456;2022-07-29T00:19:20;9.88;;;5.18;;
50249;SDS011;36133;42.522;27.456;2022-07-29T00:21:45;10.98;;;5.05;;
50249;SDS011;36133;42.522;27.456;2022-07-29T00:24:11;8.15;;;4.90;;
50249;SDS011;36133;42.522;27.456;2022-07-29T00:26:36;9.85;;;5.47;;
50249;SDS011;36133;42.522;27.456;2022-07-29T00:29:02;9.32;;;5.57;;
50249;SDS011;36133;42.522;27.456;2022-07-29T00:31:29;11.45;;;6.00;;
50249;SDS011;36133;42.522;27.456;2022-07-29T00:33:55;19.23;;;14.32;;
50249;SDS011;36133;42.522;27.456;2022-07-29T00:36:21;10.32;;;6.32;;
50249;SDS011;36133;42.522;27.456;2022-07-29T00:38:47;7.70;;;5.50;;
50249;SDS011;36133;42.522;27.456;2022-07-29T00:41:14;7.95;;;5.60;;
50249;SDS011;36133;42.522;27.456;2022-07-29T00:43:40;7.70;;;5.35;;
50249;SDS011;36133;42.522;27.456;2022-07-29T00:46:05;9.07;;;6.22;;
50249;SDS011;36133;42.522;27.456;2022-07-29T00:48:31;12.55;;;5.75;;
50249;SDS011;36133;42.522;27.456;2022-07-29T00:50:57;6.75;;;5.28;;
50249;SDS011;36133;42.522;27.456;2022-07-29T00:53:23;7.65;;;5.60;;
50249;SDS011;36133;42.522;27.456;2022-07-29T00:55:50;7.05;;;6.10;;
50249;SDS011;36133;42.522;27.456;2022-07-29T00:58:15;9.00;;;6.00;;
50249;SDS011;36133;42.522;27.456;2022-07-29T01:00:41;12.85;;;6.72;;
50249;SDS011;36133;42.522;27.456;2022-07-29T01:03:07;7.70;;;6.15;;
50249;SDS011;36133;42.522;27.456;2022-07-29T01:05:33;9.43;;;6.15;;
50249;SDS011;36133;42.522;27.456;2022-07-29T01:07:59;7.15;;;6.10;;
50249;SDS011;36133;42.522;27.456;2022-07-29T01:10:26;9.35;;;6.78;;
50249;SDS011;36133;42.522;27.456;2022-07-29T01:12:54;8.52;;;6.13;;
50249;SDS011;36133;42.522;27.456;2022-07-29T01:15:22;12.48;;;6.05;;
50249;SDS011;36133;42.522;27.456;2022-07-29T01:31:54;7.57;;;6.32;;
50249;SDS011;36133;42.522;27.456;2022-07-29T01:34:45;8.38;;;6.38;;
50249;SDS011;36133;42.522;27.456;2022-07-29T01:37:22;7.63;;;5.93;;
50249;SDS011;36133;42.522;27.456;2022-07-29T01:39:52;11.13;;;6.70;;
50249;SDS011;36133;42.522;27.456;2022-07-29T01:42:32;10.40;;;6.53;;
50249;SDS011;36133;42.522;27.456;2022-07-29T01:45:03;13.13;;;6.53;;
50249;SDS011;36133;42.522;27.456;2022-07-29T01:47:40;8.45;;;6.10;;
50249;SDS011;36133;42.522;27.456;2022-07-29T01:50:11;9.57;;;6.43;;
50249;SDS011;36133;42.522;27.456;2022-07-29T01:52:42;13.18;;;7.03;;
50249;SDS011;36133;42.522;27.456;2022-07-29T01:55:15;11.48;;;7.10;;
50249;SDS011;36133;42.522;27.456;2022-07-29T01:57:43;14.52;;;7.03;;
50249;SDS011;36133;42.522;27.456;2022-07-29T02:00:12;9.40;;;6.60;;
50249;SDS011;36133;42.522;27.456;2022-07-29T02:02:39;9.00;;;6.80;;
50249;SDS011;36133;42.522;27.456;2022-07-29T02:05:07;10.45;;;6.80;;
50249;SDS011;36133;42.522;27.456;2022-07-29T02:07:37;7.85;;;6.80;;
50249;SDS011;36133;42.522;27.456;2022-07-29T02:10:05;8.13;;;6.70;;
50249;SDS011;36133;42.522;27.456;2022-07-29T02:12:32;7.75;;;6.70;;
50249;SDS011;36133;42.522;27.456;2022-07-29T02:15:00;9.10;;;6.20;;
50249;SDS011;36133;42.522;27.456;2022-07-29T02:17:41;8.48;;;5.97;;
50249;SDS011;36133;42.522;27.456;2022-07-29T02:20:13;11.40;;;6.38;;
50249;SDS011;36133;42.522;27.456;2022-07-29T02:22:41;12.52;;;6.13;;
50249;SDS011;36133;42.522;27.456;2022-07-29T02:25:09;9.85;;;6.55;;
50249;SDS011;36133;42.522;27.456;2022-07-29T02:27:36;9.00;;;6.47;;
50249;SDS011;36133;42.522;27.456;2022-07-29T02:30:04;8.63;;;6.13;;
50249;SDS011;36133;42.522;27.456;2022-07-29T02:32:31;9.43;;;5.97;;
50249;SDS011;36133;42.522;27.456;2022-07-29T02:35:00;7.93;;;6.40;;
50249;SDS011;36133;42.522;27.456;2022-07-29T02:37:27;10.55;;;6.15;;
50249;SDS011;36133;42.522;27.456;2022-07-29T02:39:54;9.68;;;6.18;;
50249;SDS011;36133;42.522;27.456;2022-07-29T02:42:21;9.75;;;6.25;;
50249;SDS011;36133;42.522;27.456;2022-07-29T02:44:49;9.77;;;6.65;;
50249;SDS011;36133;42.522;27.456;2022-07-29T02:47:27;8.45;;;6.90;;
50249;SDS011;36133;42.522;27.456;2022-07-29T02:50:06;6.63;;;5.97;;
50249;SDS011;36133;42.522;27.456;2022-07-29T02:55:37;10.05;;;6.10;;
50249;SDS011;36133;42.522;27.456;2022-07-29T03:00:41;8.73;;;6.82;;
50249;SDS011;36133;42.522;27.456;2022-07-29T03:03:09;13.43;;;7.05;;
50249;SDS011;36133;42.522;27.456;2022-07-29T03:05:40;7.78;;;6.50;;
50249;SDS011;36133;42.522;27.456;2022-07-29T03:08:06;12.00;;;7.20;;
50249;SDS011;36133;42.522;27.456;2022-07-29T03:10:34;9.27;;;6.75;;
50249;SDS011;36133;42.522;27.456;2022-07-29T03:13:01;10.52;;;7.28;;
50249;SDS011;36133;42.522;27.456;2022-07-29T03:15:28;11.55;;;7.20;;
50249;SDS011;36133;42.522;27.456;2022-07-29T03:17:54;17.30;;;7.95;;
50249;SDS011;36133;42.522;27.456;2022-07-29T03:20:20;15.90;;;7.47;;
50249;SDS011;36133;42.522;27.456;2022-07-29T03:22:46;12.20;;;6.90;;
50249;SDS011;36133;42.522;27.456;2022-07-29T03:25:15;14.23;;;7.47;;
50249;SDS011;36133;42.522;27.456;2022-07-29T03:27:41;10.45;;;7.57;;
50249;SDS011;36133;42.522;27.456;2022-07-29T03:30:08;9.50;;;7.78;;
50249;SDS011;36133;42.522;27.456;2022-07-29T03:32:35;12.00;;;7.60;;
50249;SDS011;36133;42.522;27.456;2022-07-29T03:35:01;9.45;;;7.93;;
50249;SDS011;36133;42.522;27.456;2022-07-29T03:37:27;12.50;;;8.23;;
50249;SDS011;36133;42.522;27.456;2022-07-29T03:39:52;11.63;;;7.80;;
50249;SDS011;36133;42.522;27.456;2022-07-29T03:42:20;9.13;;;8.10;;
50249;SDS011;36133;42.522;27.456;2022-07-29T03:44:50;11.00;;;7.68;;
50249;SDS011;36133;42.522;27.456;2022-07-29T03:47:19;11.95;;;7.95;;
50249;SDS011;36133;42.522;27.456;2022-07-29T03:49:48;9.70;;;8.70;;
50249;SDS011;36133;42.522;27.456;2022-07-29T03:52:17;13.57;;;8.38;;
50249;SDS011;36133;42.522;27.456;2022-07-29T03:54:43;11.15;;;8.45;;
50249;SDS011;36133;42.522;27.456;2022-07-29T03:57:12;9.00;;;7.90;;
50249;SDS011;36133;42.522;27.456;2022-07-29T03:59:41;9.43;;;7.28;;
50249;SDS011;36133;42.522;27.456;2022-07-29T04:02:08;10.40;;;8.63;;
50249;SDS011;36133;42.522;27.456;2022-07-29T04:04:36;12.38;;;8.18;;
50249;SDS011;36133;42.522;27.456;2022-07-29T04:07:02;10.70;;;8.38;;
50249;SDS011;36133;42.522;27.456;2022-07-29T04:09:28;14.60;;;8.15;;
50249;SDS011;36133;42.522;27.456;2022-07-29T04:11:53;12.65;;;8.82;;
50249;SDS011;36133;42.522;27.456;2022-07-29T04:14:19;8.75;;;7.82;;
50249;SDS011;36133;42.522;27.456;2022-07-29T04:16:45;14.35;;;8.23;;
50249;SDS011;36133;42.522;27.456;2022-07-29T04:19:11;14.07;;;8.77;;
50249;SDS011;36133;42.522;27.456;2022-07-29T04:21:37;11.43;;;8.90;;
50249;SDS011;36133;42.522;27.456;2022-07-29T04:24:06;12.55;;;8.90;;
50249;SDS011;36133;42.522;27.456;2022-07-29T04:26:33;10.75;;;8.02;;
50249;SDS011;36133;42.522;27.456;2022-07-29T04:28:59;13.82;;;8.32;;
50249;SDS011;36133;42.522;27.456;2022-07-29T04:31:25;19.50;;;8.15;;
50249;SDS011;36133;42.522;27.456;2022-07-29T04:33:50;26.45;;;7.43;;
50249;SDS011;36133;42.522;27.456;2022-07-29T04:36:16;14.27;;;5.90;;
50249;SDS011;36133;42.522;27.456;2022-07-29T04:38:41;18.58;;;6.30;;
50249;SDS011;36133;42.522;27.456;2022-07-29T04:41:07;12.65;;;6.63;;
50249;SDS011;36133;42.522;27.456;2022-07-29T04:43:33;10.93;;;5.20;;
50249;SDS011;36133;42.522;27.456;2022-07-29T04:46:03;9.02;;;5.63;;
50249;SDS011;36133;42.522;27.456;2022-07-29T04:48:29;8.45;;;5.60;;
50249;SDS011;36133;42.522;27.456;2022-07-29T04:50:54;9.80;;;4.88;;
50249;SDS011;36133;42.522;27.456;2022-07-29T04:53:20;9.27;;;5.95;;
50249;SDS011;36133;42.522;27.456;2022-07-29T04:55:46;10.57;;;4.75;;
50249;SDS011;36133;42.522;27.456;2022-07-29T04:58:11;7.35;;;4.50;;
50249;SDS011;36133;42.522;27.456;2022-07-29T05:00:37;8.82;;;4.50;;
50249;SDS011;36133;42.522;27.456;2022-07-29T05:03:03;10.27;;;4.25;;
50249;SDS011;36133;42.522;27.456;2022-07-29T05:05:28;7.88;;;4.13;;
50249;SDS011;36133;42.522;27.456;2022-07-29T05:07:54;7.75;;;4.43;;
50249;SDS011;36133;42.522;27.456;2022-07-29T05:10:20;10.98;;;4.10;;
50249;SDS011;36133;42.522;27.456;2022-07-29T05:12:45;6.88;;;3.90;;
50249;SDS011;36133;42.522;27.456;2022-07-29T05:15:11;8.18;;;4.47;;
50249;SDS011;36133;42.522;27.456;2022-07-29T05:17:36;5.95;;;3.75;;
50249;SDS011;36133;42.522;27.456;2022-07-29T05:20:02;7.50;;;3.42;;
50249;SDS011;36133;42.522;27.456;2022-07-29T05:22:28;6.85;;;3.63;;
50249;SDS011;36133;42.522;27.456;2022-07-29T05:24:54;9.23;;;4.72;;
50249;SDS011;36133;42.522;27.456;2022-07-29T05:27:19;9.95;;;4.35;;
50249;SDS011;36133;42.522;27.456;2022-07-29T05:29:45;9.50;;;3.65;;
50249;SDS011;36133;42.522;27.456;2022-07-29T05:32:10;8.63;;;3.45;;
50249;SDS011;36133;42.522;27.456;2022-07-29T05:34:36;5.35;;;3.20;;
50249;SDS011;36133;42.522;27.456;2022-07-29T05:37:02;5.20;;;3.55;;
50249;SDS011;36133;42.522;27.456;2022-07-29T05:39:27;5.57;;;3.47;;
50249;SDS011;36133;42.522;27.456;2022-07-29T05:41:53;4.93;;;3.63;;
50249;SDS011;36133;42.522;27.456;2022-07-29T05:44:18;5.97;;;3.65;;
50249;SDS011;36133;42.522;27.456;2022-07-29T05:46:44;9.00;;;3.70;;
50249;SDS011;36133;42.522;27.456;2022-07-29T05:49:09;7.43;;;3.63;;
50249;SDS011;36133;42.522;27.456;2022-07-29T05:51:35;8.63;;;3.15;;
50249;SDS011;36133;42.522;27.456;2022-07-29T05:54:01;7.38;;;3.22;;
50249;SDS011;36133;42.522;27.456;2022-07-29T05:56:27;9.10;;;3.58;;
50249;SDS011;36133;42.522;27.456;2022-07-29T05:58:52;4.13;;;3.10;;
50249;SDS011;36133;42.522;27.456;2022-07-29T06:01:18;6.45;;;3.58;;
50249;SDS011;36133;42.522;27.456;2022-07-29T06:03:44;10.13;;;3.30;;
50249;SDS011;36133;42.522;27.456;2022-07-29T06:06:09;5.25;;;3.20;;
50249;SDS011;36133;42.522;27.456;2022-07-29T06:08:35;5.80;;;2.95;;
50249;SDS011;36133;42.522;27.456;2022-07-29T06:11:01;7.75;;;3.13;;
50249;SDS011;36133;42.522;27.456;2022-07-29T06:13:27;6.22;;;3.40;;
50249;SDS011;36133;42.522;27.456;2022-07-29T06:15:53;6.25;;;3.35;;
50249;SDS011;36133;42.522;27.456;2022-07-29T06:18:24;9.80;;;3.70;;
50249;SDS011;36133;42.522;27.456;2022-07-29T06:21:06;6.35;;;3.13;;
50249;SDS011;36133;42.522;27.456;2022-07-29T06:23:36;7.80;;;3.25;;
50249;SDS011;36133;42.522;27.456;2022-07-29T06:26:03;12.52;;;3.40;;
50249;SDS011;36133;42.522;27.456;2022-07-29T06:28:31;6.05;;;3.17;;
50249;SDS011;36133;42.522;27.456;2022-07-29T06:30:59;4.78;;;3.05;;
50249;SDS011;36133;42.522;27.456;2022-07-29T06:33:25;9.50;;;3.30;;
50249;SDS011;36133;42.522;27.456;2022-07-29T06:35:51;10.55;;;3.63;;
50249;SDS011;36133;42.522;27.456;2022-07-29T06:38:16;5.13;;;3.20;;
50249;SDS011;36133;42.522;27.456;2022-07-29T06:40:42;7.38;;;3.20;;
50249;SDS011;36133;42.522;27.456;2022-07-29T06:43:36;5.10;;;2.88;;
50249;SDS011;36133;42.522;27.456;2022-07-29T06:46:10;15.93;;;3.85;;
50249;SDS011;36133;42.522;27.456;2022-07-29T06:48:41;6.72;;;3.40;;
50249;SDS011;36133;42.522;27.456;2022-07-29T06:51:10;4.80;;;3.22;;
50249;SDS011;36133;42.522;27.456;2022-07-29T06:53:39;6.40;;;3.42;;
50249;SDS011;36133;42.522;27.456;2022-07-29T06:56:07;9.95;;;3.33;;
50249;SDS011;36133;42.522;27.456;2022-07-29T06:58:37;9.32;;;3.42;;
50249;SDS011;36133;42.522;27.456;2022-07-29T07:01:04;4.40;;;2.90;;
50249;SDS011;36133;42.522;27.456;2022-07-29T07:03:30;30.05;;;3.97;;
50249;SDS011;36133;42.522;27.456;2022-07-29T07:05:56;3.75;;;3.08;;
50249;SDS011;36133;42.522;27.456;2022-07-29T07:08:22;5.35;;;3.35;;
50249;SDS011;36133;42.522;27.456;2022-07-29T07:10:49;6.38;;;3.28;;
50249;SDS011;36133;42.522;27.456;2022-07-29T07:13:15;6.05;;;2.90;;
50249;SDS011;36133;42.522;27.456;2022-07-29T07:15:42;7.00;;;3.58;;
50249;SDS011;36133;42.522;27.456;2022-07-29T07:18:08;11.95;;;3.33;;
50249;SDS011;36133;42.522;27.456;2022-07-29T07:20:34;5.50;;;3.08;;
50249;SDS011;36133;42.522;27.456;2022-07-29T07:23:00;7.30;;;3.15;;
50249;SDS011;36133;42.522;27.456;2022-07-29T07:25:26;6.35;;;3.45;;
50249;SDS011;36133;42.522;27.456;2022-07-29T07:27:52;7.60;;;2.83;;
50249;SDS011;36133;42.522;27.456;2022-07-29T07:30:17;6.78;;;3.20;;
50249;SDS011;36133;42.522;27.456;2022-07-29T07:32:43;7.35;;;2.85;;
50249;SDS011;36133;42.522;27.456;2022-07-29T07:35:09;5.80;;;2.95;;
50249;SDS011;36133;42.522;27.456;2022-07-29T07:37:35;6.57;;;2.88;;
50249;SDS011;36133;42.522;27.456;2022-07-29T07:40:05;6.25;;;3.30;;
50249;SDS011;36133;42.522;27.456;2022-07-29T07:42:32;5.53;;;3.20;;
50249;SDS011;36133;42.522;27.456;2022-07-29T07:44:58;6.30;;;3.40;;
50249;SDS011;36133;42.522;27.456;2022-07-29T07:47:24;6.13;;;3.03;;
50249;SDS011;36133;42.522;27.456;2022-07-29T07:49:50;18.60;;;4.13;;
50249;SDS011;36133;42.522;27.456;2022-07-29T07:52:16;7.28;;;3.13;;
50249;SDS011;36133;42.522;27.456;2022-07-29T07:54:43;9.50;;;3.47;;
50249;SDS011;36133;42.522;27.456;2022-07-29T07:57:12;6.93;;;3.20;;
50249;SDS011;36133;42.522;27.456;2022-07-29T07:59:38;8.88;;;3.50;;
50249;SDS011;36133;42.522;27.456;2022-07-29T08:02:04;4.75;;;3.10;;
50249;SDS011;36133;42.522;27.456;2022-07-29T08:04:33;8.40;;;3.40;;
50249;SDS011;36133;42.522;27.456;2022-07-29T08:06:59;6.30;;;3.58;;
50249;SDS011;36133;42.522;27.456;2022-07-29T08:09:26;4.70;;;3.22;;
50249;SDS011;36133;42.522;27.456;2022-07-29T08:11:53;6.55;;;3.63;;
50249;SDS011;36133;42.522;27.456;2022-07-29T08:14:19;6.10;;;3.00;;
50249;SDS011;36133;42.522;27.456;2022-07-29T08:16:45;9.68;;;2.90;;
50249;SDS011;36133;42.522;27.456;2022-07-29T08:19:10;6.95;;;3.45;;
50249;SDS011;36133;42.522;27.456;2022-07-29T08:21:37;7.05;;;3.40;;
50249;SDS011;36133;42.522;27.456;2022-07-29T08:24:03;6.20;;;3.17;;
50249;SDS011;36133;42.522;27.456;2022-07-29T08:26:52;8.50;;;3.30;;
50249;SDS011;36133;42.522;27.456;2022-07-29T08:29:17;7.88;;;3.08;;
50249;SDS011;36133;42.522;27.456;2022-07-29T08:31:43;6.68;;;3.28;;
50249;SDS011;36133;42.522;27.456;2022-07-29T08:34:09;9.05;;;3.58;;
50249;SDS011;36133;42.522;27.456;2022-07-29T08:36:38;9.02;;;3.20;;
50249;SDS011;36133;42.522;27.456;2022-07-29T08:39:06;12.07;;;2.97;;
50249;SDS011;36133;42.522;27.456;2022-07-29T08:41:32;8.27;;;3.20;;
50249;SDS011;36133;42.522;27.456;2022-07-29T08:43:57;8.07;;;3.10;;
50249;SDS011;36133;42.522;27.456;2022-07-29T08:46:37;4.70;;;2.80;;
50249;SDS011;36133;42.522;27.456;2022-07-29T08:49:04;8.68;;;3.03;;
50249;SDS011;36133;42.522;27.456;2022-07-29T08:51:30;4.57;;;3.38;;
50249;SDS011;36133;42.522;27.456;2022-07-29T08:53:58;5.95;;;2.88;;
50249;SDS011;36133;42.522;27.456;2022-07-29T08:56:24;8.00;;;2.97;;
50249;SDS011;36133;42.522;27.456;2022-07-29T08:58:50;9.43;;;3.08;;
50249;SDS011;36133;42.522;27.456;2022-07-29T09:01:17;13.32;;;3.25;;
50249;SDS011;36133;42.522;27.456;2022-07-29T09:03:52;5.10;;;2.92;;
50249;SDS011;36133;42.522;27.456;2022-07-29T09:06:25;5.80;;;3.10;;
50249;SDS011;36133;42.522;27.456;2022-07-29T09:08:57;6.20;;;2.90;;
50249;SDS011;36133;42.522;27.456;2022-07-29T09:11:27;8.55;;;3.03;;
50249;SDS011;36133;42.522;27.456;2022-07-29T09:13:53;6.95;;;3.28;;
50249;SDS011;36133;42.522;27.456;2022-07-29T09:16:20;10.98;;;3.30;;
50249;SDS011;36133;42.522;27.456;2022-07-29T09:18:45;10.20;;;3.05;;
50249;SDS011;36133;42.522;27.456;2022-07-29T09:21:12;9.02;;;3.05;;
50249;SDS011;36133;42.522;27.456;2022-07-29T09:27:21;4.78;;;2.78;;
50249;SDS011;36133;42.522;27.456;2022-07-29T09:29:58;8.80;;;2.92;;
50249;SDS011;36133;42.522;27.456;2022-07-29T09:32:25;8.73;;;3.60;;
50249;SDS011;36133;42.522;27.456;2022-07-29T09:34:52;8.00;;;2.70;;
50249;SDS011;36133;42.522;27.456;2022-07-29T09:37:51;7.57;;;3.08;;
50249;SDS011;36133;42.522;27.456;2022-07-29T09:40:18;4.93;;;2.40;;
50249;SDS011;36133;42.522;27.456;2022-07-29T09:42:46;9.13;;;2.80;;
50249;SDS011;36133;42.522;27.456;2022-07-29T09:45:12;5.25;;;2.42;;
50249;SDS011;36133;42.522;27.456;2022-07-29T09:47:50;5.78;;;2.50;;
50249;SDS011;36133;42.522;27.456;2022-07-29T09:50:21;8.30;;;2.65;;
50249;SDS011;36133;42.522;27.456;2022-07-29T09:52:51;4.55;;;2.25;;
50249;SDS011;36133;42.522;27.456;2022-07-29T09:55:18;11.68;;;2.65;;
50249;SDS011;36133;42.522;27.456;2022-07-29T09:57:45;12.45;;;3.17;;
50249;SDS011;36133;42.522;27.456;2022-07-29T10:00:16;7.28;;;2.70;;
50249;SDS011;36133;42.522;27.456;2022-07-29T10:02:45;5.82;;;2.63;;
50249;SDS011;36133;42.522;27.456;2022-07-29T10:05:18;4.40;;;2.58;;
50249;SDS011;36133;42.522;27.456;2022-07-29T10:07:47;5.35;;;2.85;;
50249;SDS011;36133;42.522;27.456;2022-07-29T10:12:57;4.18;;;2.40;;
50249;SDS011;36133;42.522;27.456;2022-07-29T10:15:24;8.70;;;2.67;;
50249;SDS011;36133;42.522;27.456;2022-07-29T10:17:52;7.35;;;2.90;;
50249;SDS011;36133;42.522;27.456;2022-07-29T10:20:21;6.13;;;2.55;;
50249;SDS011;36133;42.522;27.456;2022-07-29T10:22:59;3.97;;;2.35;;
50249;SDS011;36133;42.522;27.456;2022-07-29T10:25:25;4.60;;;2.50;;
50249;SDS011;36133;42.522;27.456;2022-07-29T10:27:52;8.73;;;2.60;;
50249;SDS011;36133;42.522;27.456;2022-07-29T10:30:19;6.38;;;2.72;;
50249;SDS011;36133;42.522;27.456;2022-07-29T10:36:19;7.03;;;2.70;;
50249;SDS011;36133;42.522;27.456;2022-07-29T10:41:30;4.65;;;2.53;;
50249;SDS011;36133;42.522;27.456;2022-07-29T10:44:18;7.55;;;2.78;;
50249;SDS011;36133;42.522;27.456;2022-07-29T10:46:51;8.90;;;2.28;;
50249;SDS011;36133;42.522;27.456;2022-07-29T10:49:27;6.22;;;2.10;;
50249;SDS011;36133;42.522;27.456;2022-07-29T10:57:19;5.25;;;2.10;;
50249;SDS011;36133;42.522;27.456;2022-07-29T10:59:48;4.45;;;2.40;;
50249;SDS011;36133;42.522;27.456;2022-07-29T11:07:35;4.35;;;2.28;;
50249;SDS011;36133;42.522;27.456;2022-07-29T11:12:48;9.13;;;2.50;;
50249;SDS011;36133;42.522;27.456;2022-07-29T11:15:15;2.22;;;1.83;;
50249;SDS011;36133;42.522;27.456;2022-07-29T11:23:31;6.97;;;2.05;;
50249;SDS011;36133;42.522;27.456;2022-07-29T11:31:40;5.82;;;2.00;;
50249;SDS011;36133;42.522;27.456;2022-07-29T11:34:24;6.20;;;2.08;;
50249;SDS011;36133;42.522;27.456;2022-07-29T11:47:28;6.18;;;2.20;;
50249;SDS011;36133;42.522;27.456;2022-07-29T11:49:55;5.25;;;2.30;;
50249;SDS011;36133;42.522;27.456;2022-07-29T11:52:37;3.95;;;2.80;;
50249;SDS011;36133;42.522;27.456;2022-07-29T11:55:31;6.53;;;2.30;;
50249;SDS011;36133;42.522;27.456;2022-07-29T11:58:00;4.63;;;2.28;;
50249;SDS011;36133;42.522;27.456;2022-07-29T12:00:39;4.30;;;2.00;;
50249;SDS011;36133;42.522;27.456;2022-07-29T12:03:24;5.55;;;2.13;;
50249;SDS011;36133;42.522;27.456;2022-07-29T12:05:54;6.38;;;2.53;;
50249;SDS011;36133;42.522;27.456;2022-07-29T12:08:21;8.27;;;2.50;;
50249;SDS011;36133;42.522;27.456;2022-07-29T12:10:50;6.45;;;2.00;;
50249;SDS011;36133;42.522;27.456;2022-07-29T12:13:17;7.47;;;2.60;;
50249;SDS011;36133;42.522;27.456;2022-07-29T12:15:54;7.63;;;2.53;;
50249;SDS011;36133;42.522;27.456;2022-07-29T12:18:25;5.38;;;2.40;;
50249;SDS011;36133;42.522;27.456;2022-07-29T12:21:01;7.18;;;2.20;;
50249;SDS011;36133;42.522;27.456;2022-07-29T12:23:29;6.53;;;2.42;;
50249;SDS011;36133;42.522;27.456;2022-07-29T12:25:55;4.38;;;2.20;;
50249;SDS011;36133;42.522;27.456;2022-07-29T12:28:22;7.95;;;2.10;;
50249;SDS011;36133;42.522;27.456;2022-07-29T12:30:49;4.95;;;2.10;;
50249;SDS011;36133;42.522;27.456;2022-07-29T12:33:20;4.55;;;2.13;;
50249;SDS011;36133;42.522;27.456;2022-07-29T12:35:52;3.08;;;2.17;;
50249;SDS011;36133;42.522;27.456;2022-07-29T12:38:19;5.88;;;2.67;;
50249;SDS011;36133;42.522;27.456;2022-07-29T12:40:46;7.78;;;2.25;;
50249;SDS011;36133;42.522;27.456;2022-07-29T12:43:13;10.30;;;2.47;;
50249;SDS011;36133;42.522;27.456;2022-07-29T12:45:43;6.82;;;2.83;;
50249;SDS011;36133;42.522;27.456;2022-07-29T12:48:10;7.30;;;2.50;;
50249;SDS011;36133;42.522;27.456;2022-07-29T12:50:51;3.50;;;2.20;;
50249;SDS011;36133;42.522;27.456;2022-07-29T12:53:20;7.75;;;2.17;;
50249;SDS011;36133;42.522;27.456;2022-07-29T12:55:47;6.32;;;2.30;;
50249;SDS011;36133;42.522;27.456;2022-07-29T13:03:43;5.65;;;2.47;;
50249;SDS011;36133;42.522;27.456;2022-07-29T13:09:13;5.30;;;2.10;;
50249;SDS011;36133;42.522;27.456;2022-07-29T13:14:14;8.85;;;2.75;;
50249;SDS011;36133;42.522;27.456;2022-07-29T13:17:04;5.90;;;2.55;;
50249;SDS011;36133;42.522;27.456;2022-07-29T13:19:42;5.00;;;2.53;;
50249;SDS011;36133;42.522;27.456;2022-07-29T13:22:10;9.55;;;2.65;;
50249;SDS011;36133;42.522;27.456;2022-07-29T13:24:54;4.35;;;2.45;;
50249;SDS011;36133;42.522;27.456;2022-07-29T13:27:24;4.43;;;2.38;;
50249;SDS011;36133;42.522;27.456;2022-07-29T13:29:51;3.85;;;2.47;;
50249;SDS011;36133;42.522;27.456;2022-07-29T13:32:20;8.55;;;3.17;;
50249;SDS011;36133;42.522;27.456;2022-07-29T13:34:46;15.18;;;2.72;;
50249;SDS011;36133;42.522;27.456;2022-07-29T13:37:21;5.45;;;2.58;;
50249;SDS011;36133;42.522;27.456;2022-07-29T13:39:46;6.25;;;2.75;;
50249;SDS011;36133;42.522;27.456;2022-07-29T13:42:15;9.00;;;2.97;;
50249;SDS011;36133;42.522;27.456;2022-07-29T13:44:41;8.57;;;2.20;;
50249;SDS011;36133;42.522;27.456;2022-07-29T13:47:07;8.55;;;2.60;;
50249;SDS011;36133;42.522;27.456;2022-07-29T13:49:33;6.15;;;2.58;;
50249;SDS011;36133;42.522;27.456;2022-07-29T13:51:59;3.45;;;2.55;;
50249;SDS011;36133;42.522;27.456;2022-07-29T13:54:25;5.95;;;3.10;;
50249;SDS011;36133;42.522;27.456;2022-07-29T13:56:51;5.43;;;2.45;;
50249;SDS011;36133;42.522;27.456;2022-07-29T13:59:17;4.15;;;2.70;;
50249;SDS011;36133;42.522;27.456;2022-07-29T14:01:43;6.25;;;2.75;;
50249;SDS011;36133;42.522;27.456;2022-07-29T14:04:09;5.03;;;3.30;;
50249;SDS011;36133;42.522;27.456;2022-07-29T14:06:35;6.88;;;2.67;;
50249;SDS011;36133;42.522;27.456;2022-07-29T14:09:01;5.28;;;2.92;;
50249;SDS011;36133;42.522;27.456;2022-07-29T14:11:27;7.13;;;2.60;;
50249;SDS011;36133;42.522;27.456;2022-07-29T14:13:53;7.82;;;2.83;;
50249;SDS011;36133;42.522;27.456;2022-07-29T14:16:18;6.65;;;2.58;;
50249;SDS011;36133;42.522;27.456;2022-07-29T14:18:44;5.65;;;2.45;;
50249;SDS011;36133;42.522;27.456;2022-07-29T14:21:10;5.18;;;2.53;;
50249;SDS011;36133;42.522;27.456;2022-07-29T14:23:36;6.97;;;2.60;;
50249;SDS011;36133;42.522;27.456;2022-07-29T14:26:01;31.17;;;4.28;;
50249;SDS011;36133;42.522;27.456;2022-07-29T14:28:27;8.02;;;2.80;;
50249;SDS011;36133;42.522;27.456;2022-07-29T14:30:52;6.68;;;2.88;;
50249;SDS011;36133;42.522;27.456;2022-07-29T14:33:18;5.88;;;2.70;;
50249;SDS011;36133;42.522;27.456;2022-07-29T14:35:44;3.63;;;2.50;;
50249;SDS011;36133;42.522;27.456;2022-07-29T14:38:10;6.00;;;2.55;;
50249;SDS011;36133;42.522;27.456;2022-07-29T14:40:36;7.35;;;2.88;;
50249;SDS011;36133;42.522;27.456;2022-07-29T14:45:41;6.32;;;3.05;;
50249;SDS011;36133;42.522;27.456;2022-07-29T14:48:09;9.57;;;3.25;;
50249;SDS011;36133;42.522;27.456;2022-07-29T14:50:36;3.58;;;2.58;;
50249;SDS011;36133;42.522;27.456;2022-07-29T14:53:02;86.93;;;7.82;;
50249;SDS011;36133;42.522;27.456;2022-07-29T14:55:31;7.82;;;2.60;;
50249;SDS011;36133;42.522;27.456;2022-07-29T14:57:56;6.55;;;2.50;;
50249;SDS011;36133;42.522;27.456;2022-07-29T15:00:23;5.90;;;2.55;;
50249;SDS011;36133;42.522;27.456;2022-07-29T15:02:52;8.80;;;2.83;;
50249;SDS011;36133;42.522;27.456;2022-07-29T15:05:25;13.30;;;3.10;;
50249;SDS011;36133;42.522;27.456;2022-07-29T15:08:04;4.10;;;2.38;;
50249;SDS011;36133;42.522;27.456;2022-07-29T15:10:29;5.00;;;2.60;;
50249;SDS011;36133;42.522;27.456;2022-07-29T15:12:55;6.40;;;3.10;;
50249;SDS011;36133;42.522;27.456;2022-07-29T15:15:21;5.57;;;2.92;;
50249;SDS011;36133;42.522;27.456;2022-07-29T15:17:47;6.55;;;2.42;;
50249;SDS011;36133;42.522;27.456;2022-07-29T15:20:12;9.65;;;2.58;;
50249;SDS011;36133;42.522;27.456;2022-07-29T15:22:41;3.92;;;2.75;;
50249;SDS011;36133;42.522;27.456;2022-07-29T15:25:08;3.10;;;2.30;;
50249;SDS011;36133;42.522;27.456;2022-07-29T15:27:33;4.65;;;2.72;;
50249;SDS011;36133;42.522;27.456;2022-07-29T15:30:02;7.25;;;3.00;;
50249;SDS011;36133;42.522;27.456;2022-07-29T15:32:28;8.82;;;3.17;;
50249;SDS011;36133;42.522;27.456;2022-07-29T15:34:53;6.00;;;2.95;;
50249;SDS011;36133;42.522;27.456;2022-07-29T15:37:19;3.78;;;2.67;;
50249;SDS011;36133;42.522;27.456;2022-07-29T15:39:54;12.30;;;3.13;;
50249;SDS011;36133;42.522;27.456;2022-07-29T15:42:27;5.63;;;2.90;;
50249;SDS011;36133;42.522;27.456;2022-07-29T15:44:52;7.50;;;3.05;;
50249;SDS011;36133;42.522;27.456;2022-07-29T15:47:20;8.90;;;3.08;;
50249;SDS011;36133;42.522;27.456;2022-07-29T15:49:46;8.50;;;3.30;;
50249;SDS011;36133;42.522;27.456;2022-07-29T15:52:12;4.93;;;2.63;;
50249;SDS011;36133;42.522;27.456;2022-07-29T15:54:38;7.80;;;2.75;;
50249;SDS011;36133;42.522;27.456;2022-07-29T15:57:05;6.38;;;2.88;;
50249;SDS011;36133;42.522;27.456;2022-07-29T15:59:31;4.22;;;2.80;;